Time;durP1;ratioP1;P1;durP2;ratioP2;P2;SDS_P1;SDS_P2;PMS_P1;PMS_P2;Temp;Humidity;BMP_temperature;BMP_pressure;BME280_temperature;BME280_humidity;BME280_pressure;Samples;Min_cycle;Max_cycle;Signal;HPM_P1;HPM_P2
2022/12/30 00:01:06;;;;;;;;;;;;;;;;;;5070558;28;19924;-65
2022/12/30 00:03:33;;;;;;;;;;;;;;;;;;5089083;28;19984;-56
2022/12/30 00:05:59;;;;;;;;;;;;;;;;;;5054136;28;19929;-55
2022/12/30 00:11:10;;;;;;;;;;;;;;;;;;5090004;28;20022;-54
2022/12/30 00:33:43;;;;;;;;;;;;;;;;;;5060004;28;19977;-53
2022/12/30 00:36:09;;;;;;;;;;;;;;;;;;5064472;28;19924;-57
2022/12/30 00:38:36;;;;;;;;;;;;;;;;;;5072033;28;19931;-56
2022/12/30 00:43:47;;;;;;;;;;;;;;;;;;5091921;28;19931;-53
2022/12/30 00:46:13;;;;;;;;;;;;;;;;;;5068186;28;19925;-57
2022/12/30 00:56:54;;;;;;;;;;;;;;;;;;5072826;28;19970;-57
2022/12/30 00:59:20;;;;;;;;;;;;;;;;;;5062277;28;19933;-54
2022/12/30 01:01:47;;;;;;;;;;;;;;;;;;5055462;28;19928;-57
2022/12/30 01:04:15;;;;;;;;;;;;;;;;;;5058384;28;19924;-56
2022/12/30 01:06:41;;;;;;;;;;;;;;;;;;5077794;22;20294;-78
2022/12/30 01:09:08;;;;;;;;;;;;;;;;;;5066753;28;20007;-78
2022/12/30 01:11:34;;;;;;;;;;;;;;;;;;5076658;28;19963;-76
2022/12/30 01:14:01;;;;;;;;;;;;;;;;;;5076889;28;20019;-77
2022/12/30 01:16:27;;;;;;;;;;;;;;;;;;5068342;28;19960;-77
2022/12/30 01:18:54;;;;;;;;;;;;;;;;;;5056482;28;19925;-76
2022/12/30 01:21:24;;;;;;;;;;;;;;;;;;5056363;28;20345;-76
2022/12/30 01:23:51;;;;;;;;;;;;;;;;;;5056085;28;20422;-76
2022/12/30 01:26:17;;;;;;;;;;;;;;;;;;5055332;28;20082;-76
2022/12/30 01:28:44;;;;;;;;;;;;;;;;;;5055271;28;20035;-76
2022/12/30 01:31:11;;;;;;;;;;;;;;;;;;5055215;28;19986;-76
2022/12/30 01:33:38;;;;;;;;;;;;;;;;;;5056274;28;19969;-77
2022/12/30 01:36:05;;;;;;;;;;;;;;;;;;5054948;28;19925;-77
2022/12/30 01:38:33;;;;;;;;;;;;;;;;;;5055080;28;20438;-77
2022/12/30 01:41:00;;;;;;;;;;;;;;;;;;5055537;28;20457;-77
2022/12/30 01:43:39;;;;;;;;;;;;;;;;;;5054934;28;19983;-77
2022/12/30 01:46:06;;;;;;;;;;;;;;;;;;5055365;28;19984;-77
2022/12/30 01:48:33;;;;;;;;;;;;;;;;;;5055070;28;19925;-77
2022/12/30 01:51:01;;;;;;;;;;;;;;;;;;5055022;28;19952;-77
2022/12/30 01:53:29;;;;;;;;;;;;;;;;;;5056778;28;19925;-77
2022/12/30 01:55:58;;;;;;;;;;;;;;;;;;5056831;28;19960;-77
2022/12/30 01:58:28;;;;;;;;;;;;;;;;;;5056205;28;20442;-77
2022/12/30 02:00:55;;;;;;;;;;;;;;;;;;5055482;28;20115;-77
2022/12/30 02:03:21;;;;;;;;;;;;;;;;;;5054550;28;19970;-78
2022/12/30 02:05:48;;;;;;;;;;;;;;;;;;5054425;28;19970;-77
2022/12/30 02:08:16;;;;;;;;;;;;;;;;;;5054443;28;20368;-77
2022/12/30 02:10:43;;;;;;;;;;;;;;;;;;5055444;28;19967;-78
2022/12/30 02:13:13;;;;;;;;;;;;;;;;;;5054783;28;19926;-78
2022/12/30 02:15:43;;;;;;;;;;;;;;;;;;5057155;28;19932;-77
2022/12/30 02:18:14;;;;;;;;;;;;;;;;;;5055106;28;19968;-77
2022/12/30 02:20:58;;;;;;;;;;;;;;;;;;5055497;28;19987;-78
2022/12/30 02:23:43;;;;;;;;;;;;;;;;;;5055523;28;19995;-78
2022/12/30 02:26:28;;;;;;;;;;;;;;;;;;5055891;28;20395;-78
2022/12/30 02:29:13;;;;;;;;;;;;;;;;;;5054701;28;20011;-77
2022/12/30 02:31:45;;;;;;;;;;;;;;;;;;5054437;28;19994;-77
2022/12/30 02:34:15;;;;;;;;;;;;;;;;;;5054982;28;20007;-77
2022/12/30 02:36:44;;;;;;;;;;;;;;;;;;5054676;28;20011;-76
2022/12/30 02:39:14;;;;;;;;;;;;;;;;;;5054843;28;19932;-77
2022/12/30 02:44:40;;;;;;;;;;;;;;;;;;5054078;28;19931;-77
2022/12/30 02:47:19;;;;;;;;;;;;;;;;;;5054441;28;19925;-79
2022/12/30 02:52:14;;;;;;;;;;;;;;;;;;5055033;28;19924;-79
2022/12/30 02:52:35;;;;;;;;;;;;;;;;;;5054154;28;19935;-78
2022/12/30 02:55:02;;;;;;;;;;;;;;;;;;5054707;28;20027;-78
2022/12/30 02:57:29;;;;;;;;;;;;;;;;;;5054051;28;19978;-78
2022/12/30 03:05:42;;;;;;;;;;;;;;;;;;5054027;28;20409;-77
2022/12/30 03:08:14;;;;;;;;;;;;;;;;;;5053788;28;19925;-78
2022/12/30 03:13:32;;;;;;;;;;;;;;;;;;5053117;28;19931;-77
2022/12/30 03:16:02;;;;;;;;;;;;;;;;;;5053728;28;19979;-78
2022/12/30 03:18:30;;;;;;;;;;;;;;;;;;5053074;28;20457;-78
2022/12/30 03:20:57;;;;;;;;;;;;;;;;;;5053128;28;20407;-77
2022/12/30 03:28:54;;;;;;;;;;;;;;;;;;5054127;28;20051;-78
2022/12/30 03:31:21;;;;;;;;;;;;;;;;;;5053687;28;20015;-78
2022/12/30 03:33:49;;;;;;;;;;;;;;;;;;5053097;28;19929;-78
2022/12/30 03:36:17;;;;;;;;;;;;;;;;;;5052191;28;20457;-78
2022/12/30 03:38:45;;;;;;;;;;;;;;;;;;5053028;28;19975;-78
2022/12/30 03:41:12;;;;;;;;;;;;;;;;;;5052582;28;19928;-78
2022/12/30 03:43:39;;;;;;;;;;;;;;;;;;5052014;28;20020;-78
2022/12/30 03:46:06;;;;;;;;;;;;;;;;;;5052712;28;19929;-78
2022/12/30 03:48:33;;;;;;;;;;;;;;;;;;5052252;28;19956;-78
2022/12/30 03:51:01;;;;;;;;;;;;;;;;;;5052564;28;19960;-78
2022/12/30 03:53:27;;;;;;;;;;;;;;;;;;5051822;28;19974;-78
2022/12/30 03:55:54;;;;;;;;;;;;;;;;;;5052130;28;19931;-78
2022/12/30 03:58:20;;;;;;;;;;;;;;;;;;5052425;28;20015;-78
2022/12/30 04:00:47;;;;;;;;;;;;;;;;;;5051992;28;20338;-78
2022/12/30 04:03:13;;;;;;;;;;;;;;;;;;5052041;28;20343;-76
2022/12/30 04:05:39;;;;;;;;;;;;;;;;;;5051855;28;19925;-76
2022/12/30 04:08:07;;;;;;;;;;;;;;;;;;5051803;28;19964;-78
2022/12/30 04:10:34;;;;;;;;;;;;;;;;;;5052224;28;19929;-78
2022/12/30 04:13:00;;;;;;;;;;;;;;;;;;5051509;28;19975;-77
2022/12/30 04:15:27;;;;;;;;;;;;;;;;;;5052295;28;19931;-75
2022/12/30 04:17:53;;;;;;;;;;;;;;;;;;5050600;28;19968;-78
2022/12/30 04:20:20;;;;;;;;;;;;;;;;;;5051936;28;20007;-78
2022/12/30 04:22:46;;;;;;;;;;;;;;;;;;5050653;28;20355;-78
2022/12/30 04:25:14;;;;;;;;;;;;;;;;;;5051997;28;20015;-77
2022/12/30 04:27:40;;;;;;;;;;;;;;;;;;5051646;28;20008;-77
2022/12/30 04:30:07;;;;;;;;;;;;;;;;;;5052074;28;20012;-77
2022/12/30 04:32:34;;;;;;;;;;;;;;;;;;5051736;28;20019;-77
2022/12/30 04:35:00;;;;;;;;;;;;;;;;;;5052318;28;19967;-77
2022/12/30 04:37:26;;;;;;;;;;;;;;;;;;5048217;28;19925;-77
2022/12/30 04:39:53;;;;;;;;;;;;;;;;;;5049250;28;19928;-77
2022/12/30 04:42:21;;;;;;;;;;;;;;;;;;5052025;28;19968;-77
2022/12/30 04:44:47;;;;;;;;;;;;;;;;;;5051829;28;19931;-77
2022/12/30 04:47:13;;;;;;;;;;;;;;;;;;5051843;28;19925;-78
2022/12/30 04:49:40;;;;;;;;;;;;;;;;;;5051989;28;20011;-77
2022/12/30 04:52:06;;;;;;;;;;;;;;;;;;5051891;28;20011;-77
2022/12/30 04:54:33;;;;;;;;;;;;;;;;;;5051637;28;20008;-77
2022/12/30 04:57:00;;;;;;;;;;;;;;;;;;5051591;28;19925;-77
2022/12/30 04:59:27;;;;;;;;;;;;;;;;;;5051896;28;19971;-77
2022/12/30 05:01:54;;;;;;;;;;;;;;;;;;5051446;28;20419;-77
2022/12/30 05:04:20;;;;;;;;;;;;;;;;;;5051264;28;20418;-78
2022/12/30 05:06:47;;;;;;;;;;;;;;;;;;5051389;28;19994;-77
2022/12/30 05:09:13;;;;;;;;;;;;;;;;;;5051932;28;20543;-77
2022/12/30 05:11:40;;;;;;;;;;;;;;;;;;5051500;28;19924;-77
2022/12/30 05:14:06;;;;;;;;;;;;;;;;;;5051504;28;19931;-77
2022/12/30 05:16:34;;;;;;;;;;;;;;;;;;5051833;28;19963;-77
2022/12/30 05:19:00;;;;;;;;;;;;;;;;;;5051623;28;20466;-77
2022/12/30 05:21:27;;;;;;;;;;;;;;;;;;5052068;28;20012;-77
2022/12/30 05:26:37;;;;;;;;;;;;;;;;;;5052598;28;19939;-77
2022/12/30 05:29:03;;;;;;;;;;;;;;;;;;5052209;28;20123;-77
2022/12/30 05:31:30;;;;;;;;;;;;;;;;;;5052192;28;19925;-77
2022/12/30 05:33:58;;;;;;;;;;;;;;;;;;5054583;28;19929;-77
2022/12/30 05:36:24;;;;;;;;;;;;;;;;;;5055085;28;19925;-77
2022/12/30 05:38:50;;;;;;;;;;;;;;;;;;5055042;28;20024;-77
2022/12/30 05:41:17;;;;;;;;;;;;;;;;;;5054778;28;20447;-77
2022/12/30 05:43:43;;;;;;;;;;;;;;;;;;5054535;28;19943;-77
2022/12/30 05:46:10;;;;;;;;;;;;;;;;;;5055091;28;19931;-77
2022/12/30 05:48:36;;;;;;;;;;;;;;;;;;5054727;28;19947;-77
2022/12/30 05:51:04;;;;;;;;;;;;;;;;;;5054931;28;20348;-77
2022/12/30 05:53:31;;;;;;;;;;;;;;;;;;5054672;28;19979;-78
2022/12/30 05:55:58;;;;;;;;;;;;;;;;;;5054505;28;20035;-77
2022/12/30 05:58:24;;;;;;;;;;;;;;;;;;5054706;28;19932;-77
2022/12/30 06:00:51;;;;;;;;;;;;;;;;;;5054048;28;20422;-78
2022/12/30 06:03:17;;;;;;;;;;;;;;;;;;5054541;28;20391;-78
2022/12/30 06:05:44;;;;;;;;;;;;;;;;;;5054342;28;19975;-77
2022/12/30 06:08:12;;;;;;;;;;;;;;;;;;5054484;28;19964;-77
2022/12/30 06:10:38;;;;;;;;;;;;;;;;;;5054138;28;20384;-77
2022/12/30 06:13:04;;;;;;;;;;;;;;;;;;5053813;28;20528;-77
2022/12/30 06:15:31;;;;;;;;;;;;;;;;;;5054146;28;20388;-77
2022/12/30 06:17:57;;;;;;;;;;;;;;;;;;5053847;28;19972;-78
2022/12/30 06:20:24;;;;;;;;;;;;;;;;;;5057906;28;19968;-77
2022/12/30 06:22:51;;;;;;;;;;;;;;;;;;5057796;28;19925;-77
2022/12/30 06:25:19;;;;;;;;;;;;;;;;;;5057944;28;19987;-77
2022/12/30 06:27:45;;;;;;;;;;;;;;;;;;5055285;28;20007;-77
2022/12/30 06:30:12;;;;;;;;;;;;;;;;;;5054921;28;19979;-77
2022/12/30 06:32:38;;;;;;;;;;;;;;;;;;5054908;28;19925;-78
2022/12/30 06:35:06;;;;;;;;;;;;;;;;;;5054669;28;20008;-77
2022/12/30 06:37:32;;;;;;;;;;;;;;;;;;5055877;28;19925;-77
2022/12/30 06:39:59;;;;;;;;;;;;;;;;;;5056323;28;19970;-77
2022/12/30 06:42:27;;;;;;;;;;;;;;;;;;5053956;28;19924;-77
2022/12/30 06:44:53;;;;;;;;;;;;;;;;;;5052738;28;19924;-77
2022/12/30 06:47:20;;;;;;;;;;;;;;;;;;5053669;28;19950;-77
2022/12/30 06:49:46;;;;;;;;;;;;;;;;;;5053734;28;20302;-77
2022/12/30 06:52:12;;;;;;;;;;;;;;;;;;5054149;28;20379;-78
2022/12/30 06:54:39;;;;;;;;;;;;;;;;;;5053163;28;19979;-77
2022/12/30 06:57:05;;;;;;;;;;;;;;;;;;5054348;28;19929;-78
2022/12/30 06:59:33;;;;;;;;;;;;;;;;;;5054290;28;20299;-78
2022/12/30 07:02:00;;;;;;;;;;;;;;;;;;5055410;28;19968;-77
2022/12/30 07:04:26;;;;;;;;;;;;;;;;;;5053988;28;20332;-77
2022/12/30 07:06:52;;;;;;;;;;;;;;;;;;5081562;22;20019;-84
2022/12/30 07:09:19;;;;;;;;;;;;;;;;;;5077341;28;19928;-83
2022/12/30 07:11:45;;;;;;;;;;;;;;;;;;5077088;28;19959;-83
2022/12/30 07:14:12;;;;;;;;;;;;;;;;;;5076702;28;20019;-83
2022/12/30 07:16:40;;;;;;;;;;;;;;;;;;5077063;28;20028;-83
2022/12/30 07:19:06;;;;;;;;;;;;;;;;;;5077523;28;20014;-83
2022/12/30 07:21:33;;;;;;;;;;;;;;;;;;5078331;28;19924;-83
2022/12/30 07:24:00;;;;;;;;;;;;;;;;;;5077871;28;19959;-83
2022/12/30 07:26:26;;;;;;;;;;;;;;;;;;5077847;28;20349;-84
2022/12/30 07:28:54;;;;;;;;;;;;;;;;;;5058278;28;20296;-83
2022/12/30 07:31:20;;;;;;;;;;;;;;;;;;5069252;28;19925;-82
2022/12/30 07:33:48;;;;;;;;;;;;;;;;;;5073583;28;19925;-82
2022/12/30 07:36:15;;;;;;;;;;;;;;;;;;5066262;28;19925;-82
2022/12/30 07:38:41;;;;;;;;;;;;;;;;;;5063246;28;20316;-83
2022/12/30 07:41:08;;;;;;;;;;;;;;;;;;5071376;28;20302;-83
2022/12/30 07:43:34;;;;;;;;;;;;;;;;;;5074020;28;19928;-83
2022/12/30 07:46:05;;;;;;;;;;;;;;;;;;5066400;28;19925;-83
2022/12/30 07:48:32;;;;;;;;;;;;;;;;;;5062695;28;19925;-83
2022/12/30 07:51:00;;;;;;;;;;;;;;;;;;5060784;28;20449;-84
2022/12/30 07:53:26;;;;;;;;;;;;;;;;;;5059888;28;20001;-83
2022/12/30 07:55:52;;;;;;;;;;;;;;;;;;5062377;28;19924;-83
2022/12/30 07:58:19;;;;;;;;;;;;;;;;;;5060086;28;20021;-84
2022/12/30 08:00:45;;;;;;;;;;;;;;;;;;5075023;28;19935;-83
2022/12/30 08:03:12;;;;;;;;;;;;;;;;;;5076661;28;19931;-83
2022/12/30 08:05:38;;;;;;;;;;;;;;;;;;5071447;28;19974;-83
2022/12/30 08:08:07;;;;;;;;;;;;;;;;;;5076773;28;19963;-83
2022/12/30 08:10:33;;;;;;;;;;;;;;;;;;5069384;28;20011;-84
2022/12/30 08:13:00;;;;;;;;;;;;;;;;;;5057207;28;19952;-84
2022/12/30 08:15:26;;;;;;;;;;;;;;;;;;5064120;28;19928;-83
2022/12/30 08:17:53;;;;;;;;;;;;;;;;;;5077265;28;19925;-84
2022/12/30 08:20:19;;;;;;;;;;;;;;;;;;5072268;28;19929;-84
2022/12/30 08:22:45;;;;;;;;;;;;;;;;;;5077319;28;19924;-84
2022/12/30 08:25:13;;;;;;;;;;;;;;;;;;5077069;28;19924;-84
2022/12/30 08:27:40;;;;;;;;;;;;;;;;;;5086348;28;20419;-83
2022/12/30 08:30:07;;;;;;;;;;;;;;;;;;5086782;28;20233;-84
2022/12/30 08:32:33;;;;;;;;;;;;;;;;;;5065291;28;19968;-84
2022/12/30 08:35:00;;;;;;;;;;;;;;;;;;5058594;28;20024;-85
2022/12/30 08:37:26;;;;;;;;;;;;;;;;;;5057607;28;19979;-82
2022/12/30 08:39:53;;;;;;;;;;;;;;;;;;5063979;28;20007;-83
2022/12/30 08:42:20;;;;;;;;;;;;;;;;;;5077257;28;19967;-83
2022/12/30 08:44:47;;;;;;;;;;;;;;;;;;5077519;28;19924;-83
2022/12/30 08:47:13;;;;;;;;;;;;;;;;;;5078205;28;19925;-84
2022/12/30 08:49:40;;;;;;;;;;;;;;;;;;5077236;28;19925;-84
2022/12/30 08:52:06;;;;;;;;;;;;;;;;;;5077928;28;19964;-83
2022/12/30 08:54:33;;;;;;;;;;;;;;;;;;5073084;28;19972;-82
2022/12/30 08:56:59;;;;;;;;;;;;;;;;;;5056599;28;19924;-84
2022/12/30 08:59:27;;;;;;;;;;;;;;;;;;5056127;28;19972;-82
2022/12/30 09:01:53;;;;;;;;;;;;;;;;;;5061963;28;20374;-83
2022/12/30 09:04:20;;;;;;;;;;;;;;;;;;5075278;28;19931;-81
2022/12/30 09:06:46;;;;;;;;;;;;;;;;;;5075790;28;19925;-82
2022/12/30 09:09:14;;;;;;;;;;;;;;;;;;5079107;28;19936;-82
2022/12/30 09:11:42;;;;;;;;;;;;;;;;;;5079863;28;19925;-83
2022/12/30 09:14:09;;;;;;;;;;;;;;;;;;5059302;28;19927;-84
2022/12/30 09:16:37;;;;;;;;;;;;;;;;;;5060387;28;20035;-83
2022/12/30 09:19:03;;;;;;;;;;;;;;;;;;5059254;28;19924;-82
2022/12/30 09:21:30;;;;;;;;;;;;;;;;;;5059139;28;21846;-83
2022/12/30 09:23:56;;;;;;;;;;;;;;;;;;5060001;28;19972;-83
2022/12/30 09:26:24;;;;;;;;;;;;;;;;;;5059787;28;19929;-82
2022/12/30 09:28:50;;;;;;;;;;;;;;;;;;5059630;28;19956;-84
2022/12/30 09:31:17;;;;;;;;;;;;;;;;;;5058950;28;19925;-82
2022/12/30 09:33:45;;;;;;;;;;;;;;;;;;5059757;28;19956;-84
2022/12/30 09:36:12;;;;;;;;;;;;;;;;;;5059299;28;20019;-83
2022/12/30 09:38:39;;;;;;;;;;;;;;;;;;5064448;28;20007;-83
2022/12/30 09:41:07;;;;;;;;;;;;;;;;;;5069077;28;20436;-83
2022/12/30 09:43:36;;;;;;;;;;;;;;;;;;5065327;28;20015;-82
2022/12/30 09:46:09;;;;;;;;;;;;;;;;;;5059654;28;19932;-82
2022/12/30 09:48:37;;;;;;;;;;;;;;;;;;5059865;28;19955;-81
2022/12/30 09:51:06;;;;;;;;;;;;;;;;;;5059961;28;20015;-82
2022/12/30 09:53:37;;;;;;;;;;;;;;;;;;5059797;28;19935;-83
2022/12/30 09:56:05;;;;;;;;;;;;;;;;;;5069936;28;19967;-83
2022/12/30 09:58:34;;;;;;;;;;;;;;;;;;5080590;28;19924;-82
2022/12/30 10:01:06;;;;;;;;;;;;;;;;;;5071901;28;19924;-82
2022/12/30 10:03:33;;;;;;;;;;;;;;;;;;5060082;28;19979;-83
2022/12/30 10:06:05;;;;;;;;;;;;;;;;;;5077518;28;20027;-83
2022/12/30 10:08:39;;;;;;;;;;;;;;;;;;5080239;28;19968;-83
2022/12/30 10:11:10;;;;;;;;;;;;;;;;;;5069951;28;20026;-84
2022/12/30 10:13:39;;;;;;;;;;;;;;;;;;5060030;28;19979;-83
2022/12/30 10:16:08;;;;;;;;;;;;;;;;;;5061103;28;20020;-82
2022/12/30 10:18:43;;;;;;;;;;;;;;;;;;5068970;28;19993;-81
2022/12/30 10:21:16;;;;;;;;;;;;;;;;;;5086333;28;19924;-82
2022/12/30 10:23:51;;;;;;;;;;;;;;;;;;5090154;28;19925;-82
2022/12/30 10:26:20;;;;;;;;;;;;;;;;;;5082238;28;19932;-82
2022/12/30 10:28:48;;;;;;;;;;;;;;;;;;5062730;28;19947;-84
2022/12/30 10:31:18;;;;;;;;;;;;;;;;;;5072595;28;19925;-82
2022/12/30 10:33:45;;;;;;;;;;;;;;;;;;5078677;28;20261;-82
2022/12/30 10:36:14;;;;;;;;;;;;;;;;;;5064123;28;20480;-82
2022/12/30 10:38:40;;;;;;;;;;;;;;;;;;5078950;28;20023;-85
2022/12/30 10:41:11;;;;;;;;;;;;;;;;;;5076283;28;19925;-84
2022/12/30 10:43:42;;;;;;;;;;;;;;;;;;5076985;28;19912;-82
2022/12/30 10:46:17;;;;;;;;;;;;;;;;;;5079201;28;19909;-84
2022/12/30 10:48:56;;;;;;;;;;;;;;;;;;5088671;28;19932;-85
2022/12/30 10:51:24;;;;;;;;;;;;;;;;;;5082985;28;19924;-83
2022/12/30 10:53:52;;;;;;;;;;;;;;;;;;5092771;28;19924;-82
2022/12/30 10:56:23;;;;;;;;;;;;;;;;;;5083330;28;19924;-84
2022/12/30 10:58:50;;;;;;;;;;;;;;;;;;5069421;28;19925;-84
2022/12/30 11:01:18;;;;;;;;;;;;;;;;;;5061970;28;19929;-84
2022/12/30 11:03:46;;;;;;;;;;;;;;;;;;5067085;28;19931;-81
2022/12/30 11:06:21;;;;;;;;;;;;;;;;;;5096632;28;19925;-81
2022/12/30 11:08:47;;;;;;;;;;;;;;;;;;5089463;28;19924;-82
2022/12/30 11:11:14;;;;;;;;;;;;;;;;;;5089789;28;19928;-83
2022/12/30 11:16:27;;;;;;;;;;;;;;;;;;5061513;28;19931;-84
2022/12/30 11:18:54;;;;;;;;;;;;;;;;;;5080083;28;19931;-82
2022/12/30 11:21:24;;;;;;;;;;;;;;;;;;5093360;28;19925;-85
2022/12/30 11:23:53;;;;;;;;;;;;;;;;;;5083792;28;19974;-83
2022/12/30 11:26:21;;;;;;;;;;;;;;;;;;5082639;28;19925;-84
2022/12/30 11:28:54;;;;;;;;;;;;;;;;;;5083494;28;19928;-80
2022/12/30 11:31:21;;;;;;;;;;;;;;;;;;5071300;28;19940;-80
2022/12/30 11:33:49;;;;;;;;;;;;;;;;;;5068823;28;20255;-81
2022/12/30 11:36:20;;;;;;;;;;;;;;;;;;5062491;28;19988;-80
2022/12/30 11:38:47;;;;;;;;;;;;;;;;;;5064906;28;19932;-80
2022/12/30 11:41:24;;;;;;;;;;;;;;;;;;5082404;28;19924;-79
2022/12/30 11:44:05;;;;;;;;;;;;;;;;;;5079709;28;19932;-79
2022/12/30 11:46:33;;;;;;;;;;;;;;;;;;5070346;28;19947;-80
2022/12/30 11:49:03;;;;;;;;;;;;;;;;;;5069075;28;19933;-80
2022/12/30 11:51:31;;;;;;;;;;;;;;;;;;5064055;28;19929;-80
2022/12/30 11:54:05;;;;;;;;;;;;;;;;;;5063768;28;19925;-80
2022/12/30 11:56:32;;;;;;;;;;;;;;;;;;5074006;28;20011;-80
2022/12/30 11:59:05;;;;;;;;;;;;;;;;;;5065362;28;19960;-80
2022/12/30 12:01:40;;;;;;;;;;;;;;;;;;5060640;28;19956;-80
2022/12/30 12:04:07;;;;;;;;;;;;;;;;;;5063769;28;19929;-80
2022/12/30 12:06:50;;;;;;;;;;;;;;;;;;5080128;28;19929;-80
2022/12/30 12:09:17;;;;;;;;;;;;;;;;;;5076251;28;19971;-82
2022/12/30 12:11:45;;;;;;;;;;;;;;;;;;5061630;28;19929;-81
2022/12/30 12:14:17;;;;;;;;;;;;;;;;;;5069280;28;19925;-80
2022/12/30 12:16:48;;;;;;;;;;;;;;;;;;5079236;28;19928;-80
2022/12/30 12:19:20;;;;;;;;;;;;;;;;;;5060573;28;19931;-81
2022/12/30 12:21:47;;;;;;;;;;;;;;;;;;5061052;28;19978;-80
2022/12/30 12:24:18;;;;;;;;;;;;;;;;;;5060716;28;19924;-81
2022/12/30 12:26:47;;;;;;;;;;;;;;;;;;5059984;28;19929;-80
2022/12/30 12:29:16;;;;;;;;;;;;;;;;;;5059928;28;19947;-80
2022/12/30 12:31:58;;;;;;;;;;;;;;;;;;5059773;28;20388;-81
2022/12/30 12:34:34;;;;;;;;;;;;;;;;;;5060168;28;19964;-81
2022/12/30 12:37:07;;;;;;;;;;;;;;;;;;5060871;28;19971;-81
2022/12/30 12:39:45;;;;;;;;;;;;;;;;;;5069150;28;20384;-81
2022/12/30 12:42:14;;;;;;;;;;;;;;;;;;5063650;28;20033;-81
2022/12/30 12:44:53;;;;;;;;;;;;;;;;;;5083670;28;19970;-81
2022/12/30 12:47:29;;;;;;;;;;;;;;;;;;5075091;28;19925;-81
2022/12/30 12:50:07;;;;;;;;;;;;;;;;;;5082441;28;19974;-80
2022/12/30 12:52:40;;;;;;;;;;;;;;;;;;5061508;28;19931;-80
2022/12/30 12:55:25;;;;;;;;;;;;;;;;;;5062680;28;20407;-80
2022/12/30 12:57:54;;;;;;;;;;;;;;;;;;5059323;28;19967;-82
2022/12/30 13:00:22;;;;;;;;;;;;;;;;;;5060754;28;19967;-81
2022/12/30 13:03:07;;;;;;;;;;;;;;;;;;5060823;28;19975;-80
2022/12/30 13:05:37;;;;;;;;;;;;;;;;;;5059615;28;20277;-80
2022/12/30 13:08:08;;;;;;;;;;;;;;;;;;5058775;28;19964;-80
2022/12/30 13:10:38;;;;;;;;;;;;;;;;;;5058933;28;19968;-80
2022/12/30 13:13:07;;;;;;;;;;;;;;;;;;5058648;28;19984;-81
2022/12/30 13:15:38;;;;;;;;;;;;;;;;;;5062627;28;19926;-80
2022/12/30 13:18:08;;;;;;;;;;;;;;;;;;5081374;28;19928;-82
2022/12/30 13:20:40;;;;;;;;;;;;;;;;;;5080484;28;19928;-82
2022/12/30 13:23:07;;;;;;;;;;;;;;;;;;5078408;28;19925;-81
2022/12/30 13:25:37;;;;;;;;;;;;;;;;;;5059778;28;19925;-81
2022/12/30 13:28:04;;;;;;;;;;;;;;;;;;5059403;28;19960;-81
2022/12/30 13:30:34;;;;;;;;;;;;;;;;;;5060305;28;19960;-81
2022/12/30 13:33:07;;;;;;;;;;;;;;;;;;5065574;28;19931;-80
2022/12/30 13:35:50;;;;;;;;;;;;;;;;;;5064276;28;19925;-81
2022/12/30 13:38:26;;;;;;;;;;;;;;;;;;5059487;28;19932;-81
2022/12/30 13:40:56;;;;;;;;;;;;;;;;;;5072501;28;19947;-80
2022/12/30 13:43:29;;;;;;;;;;;;;;;;;;5059621;28;19924;-81
2022/12/30 13:45:57;;;;;;;;;;;;;;;;;;5059207;28;19925;-80
2022/12/30 13:48:28;;;;;;;;;;;;;;;;;;5059927;28;19925;-81
2022/12/30 13:51:02;;;;;;;;;;;;;;;;;;5071593;28;19924;-81
2022/12/30 13:53:32;;;;;;;;;;;;;;;;;;5079171;28;19931;-80
2022/12/30 13:55:58;;;;;;;;;;;;;;;;;;5058445;28;19936;-80
2022/12/30 13:58:27;;;;;;;;;;;;;;;;;;5057798;28;19925;-80
2022/12/30 14:01:09;;;;;;;;;;;;;;;;;;5067996;28;19924;-80
2022/12/30 14:03:36;;;;;;;;;;;;;;;;;;5060052;28;19956;-81
2022/12/30 14:06:03;;;;;;;;;;;;;;;;;;5059409;28;19963;-81
2022/12/30 14:08:48;;;;;;;;;;;;;;;;;;5056120;28;19929;-81
2022/12/30 14:11:16;;;;;;;;;;;;;;;;;;5055330;28;19982;-80
2022/12/30 14:13:43;;;;;;;;;;;;;;;;;;5060314;28;20008;-81
2022/12/30 14:16:31;;;;;;;;;;;;;;;;;;5060230;28;20498;-79
2022/12/30 14:19:01;;;;;;;;;;;;;;;;;;5049011;28;19970;-81
2022/12/30 14:21:48;;;;;;;;;;;;;;;;;;5055990;28;19960;-80
2022/12/30 14:24:29;;;;;;;;;;;;;;;;;;5054820;28;19975;-80
2022/12/30 14:26:56;;;;;;;;;;;;;;;;;;5054807;28;19992;-79
2022/12/30 14:29:25;;;;;;;;;;;;;;;;;;5055153;28;19964;-81
2022/12/30 14:31:53;;;;;;;;;;;;;;;;;;5070520;28;20425;-80
2022/12/30 14:34:28;;;;;;;;;;;;;;;;;;5074985;28;19932;-81
2022/12/30 14:36:59;;;;;;;;;;;;;;;;;;5075309;28;19964;-81
2022/12/30 14:39:25;;;;;;;;;;;;;;;;;;5076182;28;19924;-81
2022/12/30 14:41:52;;;;;;;;;;;;;;;;;;5061443;28;19925;-81
2022/12/30 14:44:20;;;;;;;;;;;;;;;;;;5062891;28;19986;-79
2022/12/30 14:46:55;;;;;;;;;;;;;;;;;;5075444;28;19955;-81
2022/12/30 14:49:28;;;;;;;;;;;;;;;;;;5067887;28;20367;-81
2022/12/30 14:51:57;;;;;;;;;;;;;;;;;;5054825;28;20398;-81
2022/12/30 14:54:28;;;;;;;;;;;;;;;;;;5064573;28;20023;-81
2022/12/30 14:56:55;;;;;;;;;;;;;;;;;;5078806;28;20294;-80
2022/12/30 14:59:24;;;;;;;;;;;;;;;;;;5076138;28;20407;-80
2022/12/30 15:02:09;;;;;;;;;;;;;;;;;;5080218;28;20395;-82
2022/12/30 15:04:37;;;;;;;;;;;;;;;;;;5062964;28;19931;-82
2022/12/30 15:07:04;;;;;;;;;;;;;;;;;;5065918;28;19924;-81
2022/12/30 15:09:30;;;;;;;;;;;;;;;;;;5085869;28;19963;-80
2022/12/30 15:12:00;;;;;;;;;;;;;;;;;;5085541;28;20278;-80
2022/12/30 15:14:26;;;;;;;;;;;;;;;;;;5057024;28;19963;-80
2022/12/30 15:17:06;;;;;;;;;;;;;;;;;;5053981;28;19952;-80
2022/12/30 15:19:33;;;;;;;;;;;;;;;;;;5053863;28;19925;-81
2022/12/30 15:22:01;;;;;;;;;;;;;;;;;;5054758;28;19967;-81
2022/12/30 15:24:27;;;;;;;;;;;;;;;;;;5053709;28;19924;-81
2022/12/30 15:26:55;;;;;;;;;;;;;;;;;;5054293;28;20023;-80
2022/12/30 15:29:24;;;;;;;;;;;;;;;;;;5054259;28;20411;-81
2022/12/30 15:31:51;;;;;;;;;;;;;;;;;;5063910;28;19947;-81
2022/12/30 15:34:19;;;;;;;;;;;;;;;;;;5077152;28;19986;-79
2022/12/30 15:36:46;;;;;;;;;;;;;;;;;;5070289;28;19947;-80
2022/12/30 15:39:15;;;;;;;;;;;;;;;;;;5072919;28;19925;-81
2022/12/30 15:41:42;;;;;;;;;;;;;;;;;;5072344;28;19968;-81
2022/12/30 15:44:13;;;;;;;;;;;;;;;;;;5057734;28;19940;-80
2022/12/30 15:46:46;;;;;;;;;;;;;;;;;;5064229;28;19921;-80
2022/12/30 15:49:14;;;;;;;;;;;;;;;;;;5071078;28;19953;-81
2022/12/30 15:51:41;;;;;;;;;;;;;;;;;;5075481;28;19950;-81
2022/12/30 15:54:17;;;;;;;;;;;;;;;;;;5086712;28;19925;-82
2022/12/30 15:56:46;;;;;;;;;;;;;;;;;;5073739;28;19964;-82
2022/12/30 15:59:16;;;;;;;;;;;;;;;;;;5067588;28;19924;-81
2022/12/30 16:01:43;;;;;;;;;;;;;;;;;;5057669;28;19964;-81
2022/12/30 16:04:11;;;;;;;;;;;;;;;;;;5059187;28;19951;-82
2022/12/30 16:06:39;;;;;;;;;;;;;;;;;;5071661;28;20379;-81
2022/12/30 16:09:20;;;;;;;;;;;;;;;;;;5056568;28;20403;-81
2022/12/30 16:11:52;;;;;;;;;;;;;;;;;;5056633;28;19998;-81
2022/12/30 16:14:26;;;;;;;;;;;;;;;;;;5071682;28;19932;-82
2022/12/30 16:16:52;;;;;;;;;;;;;;;;;;5079208;28;19925;-81
2022/12/30 16:19:20;;;;;;;;;;;;;;;;;;5075451;28;20015;-80
2022/12/30 16:21:51;;;;;;;;;;;;;;;;;;5058541;28;19924;-81
2022/12/30 16:24:26;;;;;;;;;;;;;;;;;;5056519;28;19968;-80
2022/12/30 16:26:54;;;;;;;;;;;;;;;;;;5055078;28;19971;-80
2022/12/30 16:29:26;;;;;;;;;;;;;;;;;;5068739;28;19960;-80
2022/12/30 16:31:52;;;;;;;;;;;;;;;;;;5075981;28;20302;-80
2022/12/30 16:34:19;;;;;;;;;;;;;;;;;;5064507;28;19960;-81
2022/12/30 16:36:45;;;;;;;;;;;;;;;;;;5057384;28;19925;-81
2022/12/30 16:39:12;;;;;;;;;;;;;;;;;;5057796;28;19979;-81
2022/12/30 16:41:42;;;;;;;;;;;;;;;;;;5056618;28;19936;-81
2022/12/30 16:44:11;;;;;;;;;;;;;;;;;;5065850;28;20297;-81
2022/12/30 16:46:38;;;;;;;;;;;;;;;;;;5077374;28;19963;-81
2022/12/30 16:49:04;;;;;;;;;;;;;;;;;;5076933;28;19983;-81
2022/12/30 16:51:33;;;;;;;;;;;;;;;;;;5075900;28;19924;-83
2022/12/30 16:54:00;;;;;;;;;;;;;;;;;;5075276;28;19928;-84
2022/12/30 16:56:26;;;;;;;;;;;;;;;;;;5077857;28;19924;-82
2022/12/30 16:58:53;;;;;;;;;;;;;;;;;;5063329;28;19925;-78
2022/12/30 17:01:23;;;;;;;;;;;;;;;;;;5069217;28;19935;-79
2022/12/30 17:03:49;;;;;;;;;;;;;;;;;;5074831;28;19956;-79
2022/12/30 17:06:17;;;;;;;;;;;;;;;;;;5061024;28;19931;-79
2022/12/30 17:08:43;;;;;;;;;;;;;;;;;;5064149;28;19991;-80
2022/12/30 17:11:11;;;;;;;;;;;;;;;;;;5063512;28;19928;-79
2022/12/30 17:13:40;;;;;;;;;;;;;;;;;;5070708;28;19924;-79
2022/12/30 17:16:13;;;;;;;;;;;;;;;;;;5076998;28;19925;-82
2022/12/30 17:18:41;;;;;;;;;;;;;;;;;;5076186;28;20035;-81
2022/12/30 17:21:08;;;;;;;;;;;;;;;;;;5068538;28;19960;-81
2022/12/30 17:23:36;;;;;;;;;;;;;;;;;;5063376;28;19924;-81
2022/12/30 17:26:03;;;;;;;;;;;;;;;;;;5068869;28;19924;-81
2022/12/30 17:28:30;;;;;;;;;;;;;;;;;;5063118;28;19924;-81
2022/12/30 17:30:56;;;;;;;;;;;;;;;;;;5064949;28;19978;-82
2022/12/30 17:33:23;;;;;;;;;;;;;;;;;;5062585;28;20110;-81
2022/12/30 17:35:51;;;;;;;;;;;;;;;;;;5056780;28;20415;-81
2022/12/30 17:38:17;;;;;;;;;;;;;;;;;;5058587;28;19947;-81
2022/12/30 17:40:44;;;;;;;;;;;;;;;;;;5059392;28;20008;-86
2022/12/30 17:43:11;;;;;;;;;;;;;;;;;;5064120;28;19925;-85
2022/12/30 17:45:37;;;;;;;;;;;;;;;;;;5077009;28;19928;-80
2022/12/30 17:48:04;;;;;;;;;;;;;;;;;;5064025;28;19952;-82
2022/12/30 17:50:30;;;;;;;;;;;;;;;;;;5059730;28;19925;-81
2022/12/30 17:52:58;;;;;;;;;;;;;;;;;;5059605;28;19932;-80